createdAt,value
2023-02-02T00:01:24.402Z,82.02
2023-02-02T00:03:51.589Z,81.88
2023-02-02T00:06:20.240Z,81.96
2023-02-02T00:08:47.477Z,81.79
2023-02-02T00:11:17.694Z,81.82
2023-02-02T00:13:44.800Z,82.11
2023-02-02T00:16:26.592Z,82.06
2023-02-02T00:18:54.492Z,82.25
2023-02-02T00:21:21.075Z,82.16
2023-02-02T00:23:47.686Z,82.17
2023-02-02T00:26:14.284Z,82.59
2023-02-02T00:28:43.107Z,82.33
2023-02-02T00:31:10.197Z,82.05
2023-02-02T00:33:36.855Z,82.16
2023-02-02T00:36:04.139Z,82.31
2023-02-02T00:38:31.801Z,82.34
2023-02-02T00:40:58.481Z,82.69
2023-02-02T00:43:25.196Z,82.15
2023-02-02T00:45:51.969Z,82.54
2023-02-02T00:48:18.623Z,82.00
2023-02-02T00:50:45.728Z,82.12
2023-02-02T00:53:12.267Z,82.50
2023-02-02T00:55:38.806Z,81.91
2023-02-02T00:58:05.380Z,82.15
2023-02-02T01:00:31.969Z,82.19
2023-02-02T01:03:04.296Z,81.74
2023-02-02T01:05:32.079Z,82.19
2023-02-02T01:07:58.705Z,82.09
2023-02-02T01:10:25.439Z,82.10
2023-02-02T01:12:52.318Z,82.01
2023-02-02T01:15:19.023Z,82.19
2023-02-02T01:17:45.634Z,82.31
2023-02-02T01:20:20.522Z,81.84
2023-02-02T01:22:47.671Z,81.84
2023-02-02T01:25:14.690Z,82.59
2023-02-02T01:27:43.740Z,82.34
2023-02-02T01:30:11.247Z,82.11
2023-02-02T01:32:37.850Z,82.41
2023-02-02T01:35:04.882Z,82.06
2023-02-02T01:37:33.625Z,82.38
2023-02-02T01:40:01.669Z,82.13
2023-02-02T01:42:28.516Z,82.37
2023-02-02T01:45:04.255Z,81.84
2023-02-02T01:47:36.424Z,82.30
2023-02-02T01:50:04.365Z,82.58
2023-02-02T01:52:34.113Z,82.13
2023-02-02T01:55:08.313Z,82.45
2023-02-02T01:57:42.136Z,82.46
2023-02-02T02:00:14.578Z,82.73
2023-02-02T02:02:48.301Z,82.47
2023-02-02T02:05:24.027Z,82.73
2023-02-02T02:07:53.520Z,82.51
2023-02-02T02:10:20.132Z,82.53
2023-02-02T02:12:48.658Z,82.65
2023-02-02T02:15:33.896Z,82.88
2023-02-02T02:18:09.279Z,82.96
2023-02-02T02:21:42.500Z,82.91
2023-02-02T02:25:02.471Z,82.62
2023-02-02T02:28:12.145Z,82.60
2023-02-02T02:30:44.326Z,82.89
2023-02-02T02:33:39.822Z,83.18
2023-02-02T02:36:15.212Z,83.11
2023-02-02T02:38:51.776Z,83.39
2023-02-02T02:41:25.842Z,83.19
2023-02-02T02:44:01.297Z,83.17
2023-02-02T02:46:28.445Z,83.00
2023-02-02T02:48:58.071Z,83.35
2023-02-02T02:51:43.607Z,83.14
2023-02-02T02:54:21.211Z,83.63
2023-02-02T02:57:06.605Z,83.11
2023-02-02T02:59:41.382Z,83.33
2023-02-02T03:02:38.213Z,83.57
2023-02-02T03:05:31.585Z,83.67
2023-02-02T03:08:16.307Z,83.31
2023-02-02T03:10:45.768Z,83.67
2023-02-02T03:13:14.143Z,83.39
2023-02-02T03:15:42.455Z,83.58
2023-02-02T03:18:09.255Z,83.57
2023-02-02T03:20:36.358Z,83.36
2023-02-02T03:23:06.001Z,83.57
2023-02-02T03:25:34.998Z,83.98
2023-02-02T03:28:01.849Z,83.69
2023-02-02T03:30:28.593Z,83.91
2023-02-02T03:32:55.337Z,83.97
2023-02-02T03:35:22.077Z,84.19
2023-02-02T03:37:51.532Z,83.58
2023-02-02T03:40:18.817Z,83.81
2023-02-02T03:42:45.419Z,83.96
2023-02-02T03:45:12.001Z,84.03
2023-02-02T03:47:38.626Z,83.88
2023-02-02T03:50:06.461Z,83.49
2023-02-02T03:52:32.963Z,83.59
2023-02-02T03:54:59.767Z,83.68
2023-02-02T03:57:26.530Z,83.62
2023-02-02T03:59:53.217Z,83.86
2023-02-02T04:02:21.944Z,83.89
2023-02-02T04:04:51.294Z,83.92
2023-02-02T04:07:17.852Z,83.90
2023-02-02T04:09:46.676Z,83.54
2023-02-02T04:12:15.794Z,83.64
2023-02-02T04:14:44.809Z,83.51
2023-02-02T04:17:11.629Z,83.59
2023-02-02T04:19:38.256Z,83.39
2023-02-02T04:22:04.939Z,84.00
2023-02-02T04:24:31.540Z,83.71
2023-02-02T04:26:58.143Z,83.76
2023-02-02T04:29:27.184Z,83.53
2023-02-02T04:31:54.371Z,83.88
2023-02-02T04:34:21.059Z,83.57
2023-02-02T04:36:47.675Z,83.44
2023-02-02T04:39:14.374Z,83.85
2023-02-02T04:41:40.926Z,83.76
2023-02-02T04:44:14.473Z,83.44
2023-02-02T04:46:41.156Z,83.81
2023-02-02T04:49:10.334Z,83.68
2023-02-02T04:51:40.371Z,83.78
2023-02-02T04:54:07.566Z,83.79
2023-02-02T04:56:34.197Z,83.97
2023-02-02T04:59:00.831Z,83.75
2023-02-02T05:01:27.577Z,83.75
2023-02-02T05:03:54.601Z,83.46
2023-02-02T05:06:21.203Z,83.76
2023-02-02T05:08:49.025Z,83.90
2023-02-02T05:11:18.498Z,83.87
2023-02-02T05:13:49.227Z,84.15
2023-02-02T05:16:15.970Z,83.69
2023-02-02T05:18:43.389Z,83.89
2023-02-02T05:21:12.404Z,83.66
2023-02-02T05:23:41.295Z,83.53
2023-02-02T05:26:18.699Z,83.49
2023-02-02T05:28:45.673Z,83.47
2023-02-02T05:31:12.414Z,83.55
2023-02-02T05:33:41.208Z,83.58
2023-02-02T05:36:08.294Z,83.69
2023-02-02T05:38:35.451Z,83.44
2023-02-02T05:41:04.992Z,83.84
2023-02-02T05:43:32.919Z,83.44
2023-02-02T05:45:59.865Z,83.64
2023-02-02T05:48:26.703Z,83.89
2023-02-02T05:51:05.951Z,84.03
2023-02-02T05:53:33.001Z,83.85
2023-02-02T05:56:01.900Z,83.49
2023-02-02T05:58:28.529Z,83.54
2023-02-02T06:00:56.702Z,83.70
2023-02-02T06:03:23.858Z,83.79
2023-02-02T06:05:50.671Z,83.74
2023-02-02T06:08:19.729Z,83.80
2023-02-02T06:10:46.331Z,84.44
2023-02-02T06:13:15.449Z,84.09
2023-02-02T06:15:43.298Z,84.26
2023-02-02T06:18:10.248Z,84.04
2023-02-02T06:20:37.194Z,84.09
2023-02-02T06:23:04.702Z,83.72
2023-02-02T06:25:31.300Z,84.01
2023-02-02T06:27:59.192Z,83.83
2023-02-02T06:30:28.466Z,84.37
2023-02-02T06:32:55.139Z,84.26
2023-02-02T06:35:21.918Z,84.50
2023-02-02T06:37:49.245Z,84.18
2023-02-02T06:40:16.072Z,84.31
2023-02-02T06:42:44.997Z,84.50
2023-02-02T06:45:11.793Z,84.31
2023-02-02T06:47:38.443Z,84.10
2023-02-02T06:50:05.206Z,84.26
2023-02-02T06:52:31.745Z,84.18
2023-02-02T06:54:58.276Z,83.71
2023-02-02T06:57:24.842Z,83.98
2023-02-02T06:59:52.311Z,83.89
2023-02-02T07:02:19.126Z,83.76
2023-02-02T07:04:46.109Z,84.15
2023-02-02T07:07:12.761Z,84.17
2023-02-02T07:09:41.648Z,84.10
2023-02-02T07:12:10.602Z,84.12
2023-02-02T07:14:37.970Z,84.00
2023-02-02T07:17:04.644Z,84.05
2023-02-02T07:19:33.651Z,84.22
2023-02-02T07:22:00.312Z,84.49
2023-02-02T07:24:27.738Z,84.21
2023-02-02T07:26:54.449Z,84.62
2023-02-02T07:29:21.036Z,84.64
2023-02-02T07:31:47.651Z,84.38
2023-02-02T07:34:14.245Z,84.63
2023-02-02T07:36:40.869Z,84.57
2023-02-02T07:39:07.844Z,84.56
2023-02-02T07:41:36.796Z,84.50
2023-02-02T07:44:04.884Z,84.84
2023-02-02T07:46:31.964Z,85.08
2023-02-02T07:48:58.787Z,84.73
2023-02-02T07:51:25.956Z,84.94
2023-02-02T07:53:54.441Z,84.71
2023-02-02T07:56:24.363Z,84.78
2023-02-02T07:58:57.217Z,85.16
2023-02-02T08:01:26.236Z,84.77
2023-02-02T08:03:54.071Z,84.86
2023-02-02T08:06:29.849Z,85.08
2023-02-02T08:08:59.699Z,84.82
2023-02-02T08:11:27.875Z,84.31
2023-02-02T08:13:57.443Z,84.81
2023-02-02T08:16:25.490Z,84.62
2023-02-02T08:18:57.601Z,84.42
2023-02-02T08:21:24.694Z,84.73
2023-02-02T08:23:53.133Z,84.47
2023-02-02T08:26:22.159Z,84.42
2023-02-02T08:28:52.925Z,84.55
2023-02-02T08:31:25.682Z,84.29
2023-02-02T08:33:54.085Z,84.06
2023-02-02T08:36:22.956Z,84.16
2023-02-02T08:38:50.248Z,84.02
2023-02-02T08:41:19.839Z,84.09
2023-02-02T08:43:46.964Z,83.88
2023-02-02T08:46:17.941Z,83.95
2023-02-02T08:48:45.348Z,84.06
2023-02-02T08:51:18.457Z,84.27
2023-02-02T08:53:46.422Z,84.08
2023-02-02T08:56:21.610Z,83.89
2023-02-02T08:58:55.374Z,83.43
2023-02-02T09:01:28.759Z,83.74
2023-02-02T09:03:59.625Z,83.35
2023-02-02T09:06:32.938Z,83.47
2023-02-02T09:09:00.224Z,83.39
2023-02-02T09:11:29.279Z,83.65
2023-02-02T09:13:58.753Z,83.07
2023-02-02T09:16:26.798Z,83.42
2023-02-02T09:18:54.680Z,83.30
2023-02-02T09:21:21.596Z,82.86
2023-02-02T09:23:49.523Z,82.73
2023-02-02T09:26:28.149Z,83.20
2023-02-02T09:29:02.488Z,82.98
2023-02-02T09:31:31.159Z,82.46
2023-02-02T09:34:04.347Z,82.27
2023-02-02T09:36:31.602Z,81.54
2023-02-02T09:38:58.484Z,81.38
2023-02-02T09:41:37.329Z,80.96
2023-02-02T09:44:19.121Z,81.05
2023-02-02T09:46:50.395Z,81.28
2023-02-02T09:49:38.294Z,81.13
2023-02-02T09:52:16.419Z,80.82
2023-02-02T09:54:48.750Z,81.11
2023-02-02T09:57:20.981Z,81.57
2023-02-02T09:59:50.785Z,81.75
2023-02-02T10:02:40.066Z,81.65
2023-02-02T10:05:13.931Z,81.79
2023-02-02T10:07:45.931Z,82.53
2023-02-02T10:10:18.090Z,82.30
2023-02-02T10:12:49.717Z,81.79
2023-02-02T10:15:38.506Z,82.18
2023-02-02T10:18:06.225Z,81.89
2023-02-02T10:20:46.531Z,81.60
2023-02-02T10:23:29.001Z,81.77
2023-02-02T10:26:01.426Z,80.99
2023-02-02T10:28:56.616Z,81.53
2023-02-02T10:32:00.448Z,81.16
2023-02-02T10:34:39.833Z,81.25
2023-02-02T10:37:12.546Z,81.29
2023-02-02T10:40:06.951Z,81.05
2023-02-02T10:42:38.132Z,81.27
2023-02-02T10:45:20.402Z,81.25
2023-02-02T10:47:47.300Z,80.98
2023-02-02T10:50:13.847Z,81.00
2023-02-02T10:52:55.110Z,81.23
2023-02-02T10:55:46.808Z,81.02
2023-02-02T10:58:13.308Z,80.88
2023-02-02T11:00:43.640Z,81.24
2023-02-02T11:03:12.333Z,80.91
2023-02-02T11:05:57.544Z,80.73
2023-02-02T11:08:40.116Z,81.12
2023-02-02T11:11:22.696Z,80.97
2023-02-02T11:14:03.678Z,80.64
2023-02-02T11:16:42.244Z,80.96
2023-02-02T11:19:30.639Z,80.91
2023-02-02T11:21:59.784Z,80.97
2023-02-02T11:24:36.528Z,80.55
2023-02-02T11:27:15.244Z,80.14
2023-02-02T11:29:59.525Z,79.92
2023-02-02T11:32:28.958Z,79.77
2023-02-02T11:35:07.170Z,79.83
2023-02-02T11:37:36.172Z,79.75
2023-02-02T11:40:30.009Z,79.71
2023-02-02T11:42:59.109Z,79.85
2023-02-02T11:45:45.848Z,80.18
2023-02-02T11:48:27.060Z,80.04
2023-02-02T11:50:56.769Z,80.28
2023-02-02T11:53:31.219Z,80.69
2023-02-02T11:56:07.652Z,80.73
2023-02-02T11:58:43.490Z,80.48
2023-02-02T12:01:22.499Z,80.77
2023-02-02T12:03:49.853Z,80.29
2023-02-02T12:06:28.739Z,80.92
2023-02-02T12:09:02.760Z,80.63
2023-02-02T12:11:40.852Z,80.48
2023-02-02T12:14:31.942Z,80.47
2023-02-02T12:17:06.987Z,80.58
2023-02-02T12:19:50.484Z,80.59
2023-02-02T12:22:32.130Z,80.57
2023-02-02T12:25:28.441Z,80.23
2023-02-02T12:28:03.638Z,80.28
2023-02-02T12:30:55.779Z,80.25
2023-02-02T12:33:52.036Z,80.39
2023-02-02T12:36:35.027Z,80.10
2023-02-02T12:39:07.721Z,80.51
2023-02-02T12:42:12.182Z,80.49
2023-02-02T12:45:06.434Z,80.45
2023-02-02T12:47:44.320Z,80.31
2023-02-02T12:50:49.512Z,80.72
2023-02-02T12:53:38.290Z,81.11
2023-02-02T12:56:13.698Z,81.15
2023-02-02T12:59:00.353Z,81.01
2023-02-02T13:02:01.893Z,81.02
2023-02-02T13:08:02.610Z,81.26
2023-02-02T13:10:42.844Z,81.56
2023-02-02T13:13:14.906Z,81.80
2023-02-02T13:15:48.782Z,82.66
2023-02-02T13:18:27.260Z,82.56
2023-02-02T13:21:07.702Z,82.79
2023-02-02T13:23:40.480Z,82.81
2023-02-02T13:26:15.570Z,82.85
2023-02-02T13:29:05.460Z,83.02
2023-02-02T13:31:42.660Z,83.22
2023-02-02T13:34:23.715Z,83.10
2023-02-02T13:37:01.931Z,83.37
2023-02-02T13:39:42.090Z,83.21
2023-02-02T13:42:22.640Z,83.68
2023-02-02T13:45:07.304Z,83.53
2023-02-02T13:47:45.560Z,83.30
2023-02-02T13:50:19.796Z,83.45
2023-02-02T13:53:05.548Z,83.55
2023-02-02T13:56:09.463Z,83.89
2023-02-02T13:58:51.306Z,83.58
2023-02-02T14:01:19.355Z,83.84
2023-02-02T14:03:56.621Z,84.21
2023-02-02T14:06:26.271Z,83.89
2023-02-02T14:08:55.639Z,83.88
2023-02-02T14:11:32.859Z,84.09
2023-02-02T14:14:33.366Z,84.00
2023-02-02T14:17:28.575Z,84.12
2023-02-02T14:19:57.349Z,83.86
2023-02-02T14:22:42.983Z,84.72
2023-02-02T14:25:33.554Z,84.39
2023-02-02T14:28:02.380Z,84.98
2023-02-02T14:30:38.855Z,85.19
2023-02-02T14:33:20.882Z,85.19
2023-02-02T14:35:47.395Z,85.54
2023-02-02T14:38:36.459Z,85.67
2023-02-02T14:42:00.813Z,85.96
2023-02-02T14:44:31.239Z,85.98
2023-02-02T14:47:02.404Z,85.77
2023-02-02T14:49:35.567Z,86.11
2023-02-02T14:52:05.813Z,86.39
2023-02-02T14:54:38.708Z,86.50
2023-02-02T14:57:22.377Z,86.26
2023-02-02T14:59:50.260Z,86.43
2023-02-02T15:02:34.752Z,86.61
2023-02-02T15:05:39.701Z,86.57
2023-02-02T15:08:26.668Z,87.07
2023-02-02T15:11:25.556Z,87.18
2023-02-02T15:14:06.956Z,86.87
2023-02-02T15:16:37.678Z,87.17
2023-02-02T15:19:18.623Z,87.57
2023-02-02T15:21:49.264Z,87.54
2023-02-02T15:24:21.559Z,87.55
2023-02-02T15:26:54.675Z,87.74
2023-02-02T15:29:47.350Z,87.85
2023-02-02T15:32:18.054Z,87.37
2023-02-02T15:34:49.308Z,87.78
2023-02-02T15:37:20.696Z,88.16
2023-02-02T15:39:52.115Z,87.74
2023-02-02T15:42:46.989Z,88.23
2023-02-02T15:45:38.179Z,87.87
2023-02-02T15:48:18.774Z,88.45
2023-02-02T15:50:47.277Z,88.03
2023-02-02T15:53:20.745Z,88.13
2023-02-02T15:55:47.348Z,88.13
2023-02-02T15:58:34.345Z,88.57
2023-02-02T16:01:07.055Z,88.88
2023-02-02T16:04:15.074Z,88.98
2023-02-02T16:06:43.142Z,88.56
2023-02-02T16:09:28.787Z,89.15
2023-02-02T16:11:55.637Z,89.02
2023-02-02T16:14:23.734Z,88.86
2023-02-02T16:16:52.828Z,88.97
2023-02-02T16:19:27.654Z,89.39
2023-02-02T16:21:58.655Z,89.10
2023-02-02T16:24:29.157Z,89.04
2023-02-02T16:26:59.220Z,89.56
2023-02-02T16:29:29.452Z,89.77
2023-02-02T16:31:56.576Z,89.48
2023-02-02T16:34:41.507Z,89.73
2023-02-02T16:37:22.472Z,89.91
2023-02-02T16:39:49.701Z,89.94
2023-02-02T16:42:23.973Z,89.51
2023-02-02T16:44:50.651Z,89.95
2023-02-02T16:47:30.607Z,89.67
2023-02-02T16:50:02.982Z,89.66
2023-02-02T16:52:29.592Z,89.62
2023-02-02T16:54:57.384Z,90.17
2023-02-02T16:57:30.478Z,89.74
2023-02-02T17:00:01.610Z,90.00
2023-02-02T17:02:38.936Z,90.23
2023-02-02T17:05:05.708Z,90.03
2023-02-02T17:07:36.772Z,89.96
2023-02-02T17:10:14.752Z,89.90
2023-02-02T17:12:41.428Z,90.18
2023-02-02T17:15:17.015Z,90.26
2023-02-02T17:17:45.368Z,90.27
2023-02-02T17:20:13.107Z,90.24
2023-02-02T17:22:43.122Z,90.44
2023-02-02T17:25:25.201Z,90.31
2023-02-02T17:27:53.489Z,90.19
2023-02-02T17:30:20.889Z,90.22
2023-02-02T17:32:47.610Z,90.40
2023-02-02T17:35:21.111Z,90.66
2023-02-02T17:37:48.298Z,90.96
2023-02-02T17:40:16.519Z,90.76
2023-02-02T17:42:51.237Z,90.81
2023-02-02T17:45:23.676Z,90.79
2023-02-02T17:47:51.513Z,91.13
2023-02-02T17:50:18.598Z,90.78
2023-02-02T17:52:46.198Z,90.91
2023-02-02T17:55:20.717Z,90.82
2023-02-02T17:57:53.921Z,91.12
2023-02-02T18:00:23.241Z,91.08
2023-02-02T18:02:52.100Z,90.64
2023-02-02T18:05:19.075Z,90.83
2023-02-02T18:07:47.875Z,90.81
2023-02-02T18:10:19.260Z,91.06
2023-02-02T18:12:45.872Z,90.97
2023-02-02T18:15:14.812Z,90.90
2023-02-02T18:17:44.232Z,91.06
2023-02-02T18:20:15.177Z,91.33
2023-02-02T18:22:47.708Z,90.97
2023-02-02T18:25:15.035Z,91.45
2023-02-02T18:27:41.661Z,91.24
2023-02-02T18:30:08.971Z,91.19
2023-02-02T18:32:39.983Z,91.38
2023-02-02T18:35:10.540Z,91.11
2023-02-02T18:37:37.677Z,91.27
2023-02-02T18:40:07.986Z,90.83
2023-02-02T18:42:36.343Z,90.83
2023-02-02T18:45:04.801Z,91.21
2023-02-02T18:47:31.415Z,91.14
2023-02-02T18:50:00.858Z,90.68
2023-02-02T18:52:31.032Z,90.68
2023-02-02T18:54:57.560Z,90.90
2023-02-02T18:57:24.220Z,90.62
2023-02-02T18:59:52.690Z,90.57
2023-02-02T19:02:19.889Z,90.77
2023-02-02T19:05:04.681Z,90.89
2023-02-02T19:07:50.659Z,90.87
2023-02-02T19:10:18.227Z,90.93
2023-02-02T19:13:02.455Z,91.02
2023-02-02T19:15:31.759Z,91.20
2023-02-02T19:17:58.329Z,91.07
2023-02-02T19:20:27.905Z,90.87
2023-02-02T19:23:06.982Z,91.13
2023-02-02T19:25:33.659Z,90.84
2023-02-02T19:28:09.088Z,90.74
2023-02-02T19:30:35.668Z,91.01
2023-02-02T19:33:02.427Z,91.23
2023-02-02T19:35:29.480Z,91.06
2023-02-02T19:38:01.809Z,91.63
2023-02-02T19:40:28.788Z,91.50
2023-02-02T19:43:10.358Z,91.75
2023-02-02T19:45:37.759Z,91.37
2023-02-02T19:48:35.407Z,91.27
2023-02-02T19:51:27.900Z,90.97
2023-02-02T19:53:59.189Z,91.46
2023-02-02T19:56:36.180Z,91.29
2023-02-02T19:59:02.851Z,91.17
2023-02-02T20:01:34.717Z,91.47
2023-02-02T20:04:04.061Z,91.58
2023-02-02T20:06:38.741Z,91.57
2023-02-02T20:09:18.222Z,91.38
2023-02-02T20:11:47.347Z,91.91
2023-02-02T20:14:18.533Z,91.75
2023-02-02T20:16:51.162Z,91.62
2023-02-02T20:19:21.715Z,91.29
2023-02-02T20:21:52.298Z,91.10
2023-02-02T20:24:40.319Z,90.97
2023-02-02T20:27:25.394Z,90.52
2023-02-02T20:29:54.158Z,90.83
2023-02-02T20:32:29.259Z,90.69
2023-02-02T20:34:59.330Z,90.80
2023-02-02T20:37:32.348Z,90.86
2023-02-02T20:40:03.361Z,90.64
2023-02-02T20:42:30.360Z,90.39
2023-02-02T20:44:58.201Z,90.63
2023-02-02T20:47:25.252Z,90.60
2023-02-02T20:49:54.327Z,90.54
2023-02-02T20:52:24.120Z,90.30
2023-02-02T20:54:51.649Z,90.35
2023-02-02T20:57:18.776Z,90.46
2023-02-02T20:59:45.365Z,90.51
2023-02-02T21:02:19.658Z,90.50
2023-02-02T21:04:47.701Z,90.88
2023-02-02T21:07:19.631Z,90.65
2023-02-02T21:09:48.624Z,90.08
2023-02-02T21:12:16.007Z,90.45
2023-02-02T21:14:44.914Z,89.99
2023-02-02T21:17:15.252Z,89.93
2023-02-02T21:19:45.823Z,90.30
2023-02-02T21:22:15.144Z,89.82
2023-02-02T21:24:42.620Z,90.27
2023-02-02T21:27:10.067Z,90.25
2023-02-02T21:29:36.895Z,90.01
2023-02-02T21:32:04.175Z,90.04
2023-02-02T21:34:31.905Z,90.22
2023-02-02T21:37:01.169Z,89.96
2023-02-02T21:39:32.626Z,89.97
2023-02-02T21:42:08.420Z,89.79
2023-02-02T21:44:49.711Z,89.80
2023-02-02T21:47:45.407Z,89.83
2023-02-02T21:50:16.154Z,89.90
2023-02-02T21:52:43.245Z,89.83
2023-02-02T21:55:33.625Z,89.78
2023-02-02T21:58:11.523Z,90.04
2023-02-02T22:00:38.121Z,89.95
2023-02-02T22:03:24.782Z,89.84
2023-02-02T22:05:53.714Z,89.90
2023-02-02T22:08:26.771Z,90.05
2023-02-02T22:10:53.333Z,89.85
2023-02-02T22:13:24.869Z,89.82
2023-02-02T22:15:53.414Z,89.60
2023-02-02T22:18:26.240Z,89.91
2023-02-02T22:20:56.421Z,89.71
2023-02-02T22:23:28.239Z,89.58
2023-02-02T22:25:57.774Z,89.90
2023-02-02T22:28:27.252Z,89.92
2023-02-02T22:30:59.839Z,89.88
2023-02-02T22:33:26.802Z,89.57
2023-02-02T22:35:55.944Z,90.08
2023-02-02T22:38:24.661Z,89.80
2023-02-02T22:40:54.802Z,89.94
2023-02-02T22:43:21.993Z,89.72
2023-02-02T22:45:49.219Z,89.83
2023-02-02T22:48:16.696Z,89.96
2023-02-02T22:50:43.384Z,90.07
2023-02-02T22:53:15.497Z,90.18
2023-02-02T22:55:43.439Z,89.85
2023-02-02T22:58:12.294Z,90.09
2023-02-02T23:00:38.876Z,89.60
2023-02-02T23:03:05.533Z,89.83
2023-02-02T23:05:32.332Z,89.53
2023-02-02T23:07:58.890Z,89.79
2023-02-02T23:10:27.746Z,90.05
2023-02-02T23:12:56.001Z,90.15
2023-02-02T23:15:22.712Z,89.83
2023-02-02T23:17:49.771Z,89.77
2023-02-02T23:20:17.342Z,89.68
2023-02-02T23:22:44.010Z,89.72
2023-02-02T23:25:12.160Z,89.70
2023-02-02T23:27:39.431Z,90.13
2023-02-02T23:30:07.675Z,90.32
2023-02-02T23:32:34.724Z,89.77
2023-02-02T23:35:01.458Z,90.04
2023-02-02T23:37:30.367Z,90.07
2023-02-02T23:39:56.920Z,90.12
2023-02-02T23:42:23.505Z,89.89
2023-02-02T23:44:50.083Z,90.21
2023-02-02T23:47:16.767Z,90.18
2023-02-02T23:49:44.078Z,89.88
2023-02-02T23:52:10.822Z,89.91
2023-02-02T23:54:37.629Z,89.88
2023-02-02T23:57:04.419Z,90.34
2023-02-02T23:59:30.962Z,89.90
